sensor_id;sensor_type;location;lat;lon;timestamp;P1;durP1;ratioP1;P2;durP2;ratioP2
11531;SDS011;5822;51.000;5.874;2023-09-19T00:00:45;13.87;;;13.10;;
11531;SDS011;5822;51.000;5.874;2023-09-19T00:03:12;14.25;;;13.45;;
11531;SDS011;5822;51.000;5.874;2023-09-19T00:05:38;14.40;;;13.60;;
11531;SDS011;5822;51.000;5.874;2023-09-19T00:08:04;13.73;;;12.93;;
11531;SDS011;5822;51.000;5.874;2023-09-19T00:10:30;14.02;;;13.27;;
11531;SDS011;5822;51.000;5.874;2023-09-19T00:12:59;13.70;;;12.93;;
11531;SDS011;5822;51.000;5.874;2023-09-19T00:15:30;13.30;;;12.60;;
11531;SDS011;5822;51.000;5.874;2023-09-19T00:18:02;13.23;;;12.52;;
11531;SDS011;5822;51.000;5.874;2023-09-19T00:20:29;13.52;;;12.75;;
11531;SDS011;5822;51.000;5.874;2023-09-19T00:22:55;14.05;;;13.25;;
11531;SDS011;5822;51.000;5.874;2023-09-19T00:25:20;14.10;;;13.30;;
11531;SDS011;5822;51.000;5.874;2023-09-19T00:27:46;14.00;;;13.20;;
11531;SDS011;5822;51.000;5.874;2023-09-19T00:30:15;14.43;;;13.57;;
11531;SDS011;5822;51.000;5.874;2023-09-19T00:32:46;13.40;;;12.70;;
11531;SDS011;5822;51.000;5.874;2023-09-19T00:35:13;13.43;;;12.73;;
11531;SDS011;5822;51.000;5.874;2023-09-19T00:37:41;13.43;;;12.73;;
11531;SDS011;5822;51.000;5.874;2023-09-19T00:40:08;13.27;;;12.57;;
11531;SDS011;5822;51.000;5.874;2023-09-19T00:42:40;13.70;;;12.90;;
11531;SDS011;5822;51.000;5.874;2023-09-19T00:45:07;13.85;;;13.15;;
11531;SDS011;5822;51.000;5.874;2023-09-19T00:47:43;14.00;;;13.20;;
11531;SDS011;5822;51.000;5.874;2023-09-19T00:50:15;13.73;;;12.93;;
11531;SDS011;5822;51.000;5.874;2023-09-19T00:52:43;13.77;;;12.98;;
11531;SDS011;5822;51.000;5.874;2023-09-19T00:55:11;13.80;;;13.00;;
11531;SDS011;5822;51.000;5.874;2023-09-19T00:57:39;13.60;;;12.90;;
11531;SDS011;5822;51.000;5.874;2023-09-19T01:00:06;13.40;;;12.70;;
11531;SDS011;5822;51.000;5.874;2023-09-19T01:02:34;13.32;;;12.63;;
11531;SDS011;5822;51.000;5.874;2023-09-19T01:05:00;13.20;;;12.50;;
11531;SDS011;5822;51.000;5.874;2023-09-19T01:07:28;13.52;;;12.80;;
11531;SDS011;5822;51.000;5.874;2023-09-19T01:09:59;13.77;;;12.98;;
11531;SDS011;5822;51.000;5.874;2023-09-19T01:12:34;13.50;;;12.80;;
11531;SDS011;5822;51.000;5.874;2023-09-19T01:15:13;13.40;;;12.70;;
11531;SDS011;5822;51.000;5.874;2023-09-19T01:17:48;13.20;;;12.50;;
11531;SDS011;5822;51.000;5.874;2023-09-19T01:20:33;13.80;;;13.00;;
11531;SDS011;5822;51.000;5.874;2023-09-19T01:23:21;13.57;;;12.88;;
11531;SDS011;5822;51.000;5.874;2023-09-19T01:26:21;13.82;;;13.10;;
11531;SDS011;5822;51.000;5.874;2023-09-19T01:29:12;13.63;;;12.90;;
11531;SDS011;5822;51.000;5.874;2023-09-19T01:31:44;13.68;;;12.98;;
11531;SDS011;5822;51.000;5.874;2023-09-19T01:34:10;13.73;;;12.93;;
11531;SDS011;5822;51.000;5.874;2023-09-19T01:36:36;13.83;;;13.03;;
11531;SDS011;5822;51.000;5.874;2023-09-19T01:39:07;13.50;;;12.70;;
11531;SDS011;5822;51.000;5.874;2023-09-19T01:41:41;13.52;;;12.73;;
11531;SDS011;5822;51.000;5.874;2023-09-19T01:44:11;13.27;;;12.57;;
11531;SDS011;5822;51.000;5.874;2023-09-19T01:46:42;13.20;;;12.50;;
11531;SDS011;5822;51.000;5.874;2023-09-19T01:52:30;14.27;;;13.48;;
11531;SDS011;5822;51.000;5.874;2023-09-19T01:54:48;13.40;;;12.70;;
11531;SDS011;5822;51.000;5.874;2023-09-19T01:57:27;13.65;;;12.95;;
11531;SDS011;5822;51.000;5.874;2023-09-19T02:00:08;13.20;;;12.50;;
11531;SDS011;5822;51.000;5.874;2023-09-19T02:02:40;13.48;;;12.77;;
11531;SDS011;5822;51.000;5.874;2023-09-19T02:05:09;13.80;;;13.00;;
11531;SDS011;5822;51.000;5.874;2023-09-19T02:07:35;13.50;;;12.80;;
11531;SDS011;5822;51.000;5.874;2023-09-19T02:10:03;13.80;;;13.00;;
11531;SDS011;5822;51.000;5.874;2023-09-19T02:12:30;14.00;;;13.20;;
11531;SDS011;5822;51.000;5.874;2023-09-19T02:14:57;13.52;;;12.82;;
11531;SDS011;5822;51.000;5.874;2023-09-19T02:17:24;13.20;;;12.50;;
11531;SDS011;5822;51.000;5.874;2023-09-19T02:19:53;13.30;;;12.60;;
11531;SDS011;5822;51.000;5.874;2023-09-19T02:22:23;12.90;;;12.20;;
11531;SDS011;5822;51.000;5.874;2023-09-19T02:24:49;13.07;;;12.38;;
11531;SDS011;5822;51.000;5.874;2023-09-19T02:27:16;13.00;;;12.30;;
11531;SDS011;5822;51.000;5.874;2023-09-19T02:29:42;13.20;;;12.50;;
11531;SDS011;5822;51.000;5.874;2023-09-19T02:32:08;13.02;;;12.32;;
11531;SDS011;5822;51.000;5.874;2023-09-19T02:34:37;13.13;;;12.43;;
11531;SDS011;5822;51.000;5.874;2023-09-19T02:37:04;13.98;;;13.18;;
11531;SDS011;5822;51.000;5.874;2023-09-19T02:39:30;13.65;;;12.95;;
11531;SDS011;5822;51.000;5.874;2023-09-19T02:41:56;13.80;;;13.00;;
11531;SDS011;5822;51.000;5.874;2023-09-19T02:44:22;13.40;;;12.70;;
11531;SDS011;5822;51.000;5.874;2023-09-19T02:46:48;13.10;;;12.50;;
11531;SDS011;5822;51.000;5.874;2023-09-19T02:49:15;13.32;;;12.63;;
11531;SDS011;5822;51.000;5.874;2023-09-19T02:51:42;13.70;;;12.95;;
11531;SDS011;5822;51.000;5.874;2023-09-19T02:54:08;13.60;;;12.90;;
11531;SDS011;5822;51.000;5.874;2023-09-19T02:56:35;13.50;;;12.80;;
11531;SDS011;5822;51.000;5.874;2023-09-19T02:59:01;13.35;;;12.65;;
11531;SDS011;5822;51.000;5.874;2023-09-19T03:01:27;13.40;;;12.70;;
11531;SDS011;5822;51.000;5.874;2023-09-19T03:03:53;13.50;;;12.80;;
11531;SDS011;5822;51.000;5.874;2023-09-19T03:06:19;13.20;;;12.50;;
11531;SDS011;5822;51.000;5.874;2023-09-19T03:08:46;13.25;;;12.55;;
11531;SDS011;5822;51.000;5.874;2023-09-19T03:11:13;13.30;;;12.60;;
11531;SDS011;5822;51.000;5.874;2023-09-19T03:13:41;13.05;;;12.35;;
11531;SDS011;5822;51.000;5.874;2023-09-19T03:16:07;12.50;;;11.90;;
11531;SDS011;5822;51.000;5.874;2023-09-19T03:18:35;12.40;;;11.80;;
11531;SDS011;5822;51.000;5.874;2023-09-19T03:21:01;13.07;;;12.37;;
11531;SDS011;5822;51.000;5.874;2023-09-19T03:23:27;12.73;;;12.10;;
11531;SDS011;5822;51.000;5.874;2023-09-19T03:25:54;13.15;;;12.45;;
11531;SDS011;5822;51.000;5.874;2023-09-19T03:28:21;12.68;;;12.07;;
11531;SDS011;5822;51.000;5.874;2023-09-19T03:33:42;13.00;;;12.30;;
11531;SDS011;5822;51.000;5.874;2023-09-19T03:36:07;13.07;;;12.38;;
11531;SDS011;5822;51.000;5.874;2023-09-19T03:38:33;12.93;;;12.23;;
11531;SDS011;5822;51.000;5.874;2023-09-19T03:40:59;12.55;;;11.95;;
11531;SDS011;5822;51.000;5.874;2023-09-19T03:43:26;12.60;;;12.00;;
11531;SDS011;5822;51.000;5.874;2023-09-19T03:45:52;12.20;;;11.60;;
11531;SDS011;5822;51.000;5.874;2023-09-19T03:48:19;12.60;;;11.90;;
11531;SDS011;5822;51.000;5.874;2023-09-19T03:50:46;12.68;;;12.07;;
11531;SDS011;5822;51.000;5.874;2023-09-19T03:53:12;13.40;;;12.60;;
11531;SDS011;5822;51.000;5.874;2023-09-19T03:55:38;12.88;;;12.18;;
11531;SDS011;5822;51.000;5.874;2023-09-19T03:58:04;13.30;;;12.50;;
11531;SDS011;5822;51.000;5.874;2023-09-19T04:00:30;13.23;;;12.52;;
11531;SDS011;5822;51.000;5.874;2023-09-19T04:02:56;13.20;;;12.50;;
11531;SDS011;5822;51.000;5.874;2023-09-19T04:05:22;13.10;;;12.40;;
11531;SDS011;5822;51.000;5.874;2023-09-19T04:07:48;12.90;;;12.20;;
11531;SDS011;5822;51.000;5.874;2023-09-19T04:10:15;12.70;;;12.10;;
11531;SDS011;5822;51.000;5.874;2023-09-19T04:12:40;13.53;;;12.73;;
11531;SDS011;5822;51.000;5.874;2023-09-19T04:15:18;12.98;;;12.27;;
11531;SDS011;5822;51.000;5.874;2023-09-19T04:17:44;13.20;;;12.50;;
11531;SDS011;5822;51.000;5.874;2023-09-19T04:20:10;12.90;;;12.30;;
11531;SDS011;5822;51.000;5.874;2023-09-19T04:22:37;13.10;;;12.40;;
11531;SDS011;5822;51.000;5.874;2023-09-19T04:25:04;13.23;;;12.52;;
11531;SDS011;5822;51.000;5.874;2023-09-19T04:27:31;13.10;;;12.40;;
11531;SDS011;5822;51.000;5.874;2023-09-19T04:29:57;13.07;;;12.37;;
11531;SDS011;5822;51.000;5.874;2023-09-19T04:32:24;13.48;;;12.77;;
11531;SDS011;5822;51.000;5.874;2023-09-19T04:34:53;13.20;;;12.50;;
11531;SDS011;5822;51.000;5.874;2023-09-19T04:37:19;13.15;;;12.50;;
11531;SDS011;5822;51.000;5.874;2023-09-19T04:39:44;13.40;;;12.70;;
11531;SDS011;5822;51.000;5.874;2023-09-19T04:42:12;13.60;;;12.90;;
11531;SDS011;5822;51.000;5.874;2023-09-19T04:44:39;13.40;;;12.70;;
11531;SDS011;5822;51.000;5.874;2023-09-19T04:47:05;13.18;;;12.57;;
11531;SDS011;5822;51.000;5.874;2023-09-19T04:49:31;13.20;;;12.50;;
11531;SDS011;5822;51.000;5.874;2023-09-19T04:51:56;13.52;;;12.82;;
11531;SDS011;5822;51.000;5.874;2023-09-19T04:54:22;13.60;;;12.80;;
11531;SDS011;5822;51.000;5.874;2023-09-19T04:56:48;13.43;;;12.73;;
11531;SDS011;5822;51.000;5.874;2023-09-19T04:59:13;13.73;;;12.93;;
11531;SDS011;5822;51.000;5.874;2023-09-19T05:01:40;13.57;;;12.88;;
11531;SDS011;5822;51.000;5.874;2023-09-19T05:04:06;14.10;;;13.30;;
11531;SDS011;5822;51.000;5.874;2023-09-19T05:06:31;14.40;;;13.50;;
11531;SDS011;5822;51.000;5.874;2023-09-19T05:08:58;14.15;;;13.35;;
11531;SDS011;5822;51.000;5.874;2023-09-19T05:11:25;13.95;;;13.20;;
11531;SDS011;5822;51.000;5.874;2023-09-19T05:13:51;14.60;;;13.80;;
11531;SDS011;5822;51.000;5.874;2023-09-19T05:16:18;14.25;;;13.45;;
11531;SDS011;5822;51.000;5.874;2023-09-19T05:18:44;14.07;;;13.27;;
11531;SDS011;5822;51.000;5.874;2023-09-19T05:21:09;13.93;;;13.20;;
11531;SDS011;5822;51.000;5.874;2023-09-19T05:23:35;13.97;;;13.27;;
11531;SDS011;5822;51.000;5.874;2023-09-19T05:26:02;14.40;;;13.60;;
11531;SDS011;5822;51.000;5.874;2023-09-19T05:28:29;14.20;;;13.40;;
11531;SDS011;5822;51.000;5.874;2023-09-19T05:30:54;14.43;;;13.63;;
11531;SDS011;5822;51.000;5.874;2023-09-19T05:33:20;14.40;;;13.60;;
11531;SDS011;5822;51.000;5.874;2023-09-19T05:35:47;14.50;;;13.60;;
11531;SDS011;5822;51.000;5.874;2023-09-19T05:38:13;14.30;;;13.50;;
11531;SDS011;5822;51.000;5.874;2023-09-19T05:40:44;13.75;;;13.05;;
11531;SDS011;5822;51.000;5.874;2023-09-19T05:43:10;14.20;;;13.40;;
11531;SDS011;5822;51.000;5.874;2023-09-19T05:45:35;14.77;;;13.97;;
11531;SDS011;5822;51.000;5.874;2023-09-19T05:48:09;14.10;;;13.30;;
11531;SDS011;5822;51.000;5.874;2023-09-19T05:50:40;14.63;;;13.80;;
11531;SDS011;5822;51.000;5.874;2023-09-19T05:53:06;14.60;;;13.80;;
11531;SDS011;5822;51.000;5.874;2023-09-19T05:55:32;14.30;;;13.50;;
11531;SDS011;5822;51.000;5.874;2023-09-19T05:57:58;14.50;;;13.60;;
11531;SDS011;5822;51.000;5.874;2023-09-19T06:00:24;14.18;;;13.38;;
11531;SDS011;5822;51.000;5.874;2023-09-19T06:02:55;13.98;;;13.18;;
11531;SDS011;5822;51.000;5.874;2023-09-19T06:05:22;14.95;;;14.05;;
11531;SDS011;5822;51.000;5.874;2023-09-19T06:07:48;15.30;;;14.50;;
11531;SDS011;5822;51.000;5.874;2023-09-19T06:10:16;15.35;;;14.55;;
11531;SDS011;5822;51.000;5.874;2023-09-19T06:12:42;14.70;;;13.90;;
11531;SDS011;5822;51.000;5.874;2023-09-19T06:15:09;14.80;;;14.07;;
11531;SDS011;5822;51.000;5.874;2023-09-19T06:17:40;14.40;;;13.70;;
11531;SDS011;5822;51.000;5.874;2023-09-19T06:20:11;14.30;;;13.60;;
11531;SDS011;5822;51.000;5.874;2023-09-19T06:22:41;14.90;;;14.10;;
11531;SDS011;5822;51.000;5.874;2023-09-19T06:25:11;14.38;;;13.68;;
11531;SDS011;5822;51.000;5.874;2023-09-19T06:27:38;14.43;;;13.63;;
11531;SDS011;5822;51.000;5.874;2023-09-19T06:30:07;15.23;;;14.43;;
11531;SDS011;5822;51.000;5.874;2023-09-19T06:32:34;15.05;;;14.15;;
11531;SDS011;5822;51.000;5.874;2023-09-19T06:34:59;15.50;;;14.68;;
11531;SDS011;5822;51.000;5.874;2023-09-19T06:37:28;14.60;;;13.90;;
11531;SDS011;5822;51.000;5.874;2023-09-19T06:39:54;14.60;;;13.82;;
11531;SDS011;5822;51.000;5.874;2023-09-19T06:42:22;15.38;;;14.57;;
11531;SDS011;5822;51.000;5.874;2023-09-19T06:44:48;14.82;;;14.02;;
11531;SDS011;5822;51.000;5.874;2023-09-19T06:47:14;15.00;;;14.20;;
11531;SDS011;5822;51.000;5.874;2023-09-19T06:49:41;15.20;;;14.40;;
11531;SDS011;5822;51.000;5.874;2023-09-19T06:52:10;14.87;;;14.07;;
11531;SDS011;5822;51.000;5.874;2023-09-19T06:54:36;14.80;;;14.00;;
11531;SDS011;5822;51.000;5.874;2023-09-19T06:57:02;14.63;;;13.85;;
11531;SDS011;5822;51.000;5.874;2023-09-19T06:59:28;14.40;;;13.70;;
11531;SDS011;5822;51.000;5.874;2023-09-19T07:01:54;14.53;;;13.83;;
11531;SDS011;5822;51.000;5.874;2023-09-19T07:04:20;14.50;;;13.70;;
11531;SDS011;5822;51.000;5.874;2023-09-19T07:06:51;15.10;;;14.20;;
11531;SDS011;5822;51.000;5.874;2023-09-19T07:09:17;14.50;;;13.70;;
11531;SDS011;5822;51.000;5.874;2023-09-19T07:11:47;14.77;;;14.00;;
11531;SDS011;5822;51.000;5.874;2023-09-19T07:14:15;15.10;;;14.30;;
11531;SDS011;5822;51.000;5.874;2023-09-19T07:16:41;14.80;;;14.00;;
11531;SDS011;5822;51.000;5.874;2023-09-19T07:19:09;14.52;;;13.82;;
11531;SDS011;5822;51.000;5.874;2023-09-19T07:21:35;14.20;;;13.40;;
11531;SDS011;5822;51.000;5.874;2023-09-19T07:24:01;15.30;;;14.40;;
11531;SDS011;5822;51.000;5.874;2023-09-19T07:26:28;14.90;;;14.10;;
11531;SDS011;5822;51.000;5.874;2023-09-19T07:28:54;19.27;;;18.10;;
11531;SDS011;5822;51.000;5.874;2023-09-19T07:31:19;18.23;;;17.17;;
11531;SDS011;5822;51.000;5.874;2023-09-19T07:33:47;16.10;;;15.20;;
11531;SDS011;5822;51.000;5.874;2023-09-19T07:36:13;15.80;;;14.90;;
11531;SDS011;5822;51.000;5.874;2023-09-19T07:38:40;15.10;;;14.30;;
11531;SDS011;5822;51.000;5.874;2023-09-19T07:41:06;15.02;;;14.23;;
11531;SDS011;5822;51.000;5.874;2023-09-19T07:43:33;15.60;;;14.70;;
11531;SDS011;5822;51.000;5.874;2023-09-19T07:46:06;15.50;;;14.70;;
11531;SDS011;5822;51.000;5.874;2023-09-19T07:48:34;14.95;;;14.15;;
11531;SDS011;5822;51.000;5.874;2023-09-19T07:51:01;14.80;;;14.10;;
11531;SDS011;5822;51.000;5.874;2023-09-19T07:53:28;15.57;;;14.68;;
11531;SDS011;5822;51.000;5.874;2023-09-19T07:56:01;14.90;;;14.10;;
11531;SDS011;5822;51.000;5.874;2023-09-19T07:58:30;15.13;;;14.32;;
11531;SDS011;5822;51.000;5.874;2023-09-19T08:00:56;14.75;;;13.95;;
11531;SDS011;5822;51.000;5.874;2023-09-19T08:03:27;14.80;;;14.00;;
11531;SDS011;5822;51.000;5.874;2023-09-19T08:05:52;15.07;;;14.27;;
11531;SDS011;5822;51.000;5.874;2023-09-19T08:08:18;14.95;;;14.15;;
11531;SDS011;5822;51.000;5.874;2023-09-19T08:10:45;14.60;;;13.77;;
11531;SDS011;5822;51.000;5.874;2023-09-19T08:13:14;14.52;;;13.77;;
11531;SDS011;5822;51.000;5.874;2023-09-19T08:15:45;14.45;;;13.75;;
11531;SDS011;5822;51.000;5.874;2023-09-19T08:18:11;14.70;;;13.90;;
11531;SDS011;5822;51.000;5.874;2023-09-19T08:20:37;14.70;;;13.90;;
11531;SDS011;5822;51.000;5.874;2023-09-19T08:23:03;14.73;;;13.93;;
11531;SDS011;5822;51.000;5.874;2023-09-19T08:25:29;14.80;;;14.00;;
11531;SDS011;5822;51.000;5.874;2023-09-19T08:27:55;15.20;;;14.40;;
11531;SDS011;5822;51.000;5.874;2023-09-19T08:30:27;15.07;;;14.25;;
11531;SDS011;5822;51.000;5.874;2023-09-19T08:32:58;14.93;;;14.13;;
11531;SDS011;5822;51.000;5.874;2023-09-19T08:35:24;15.27;;;14.38;;
11531;SDS011;5822;51.000;5.874;2023-09-19T08:37:50;15.60;;;14.70;;
11531;SDS011;5822;51.000;5.874;2023-09-19T08:40:16;15.55;;;14.65;;
11531;SDS011;5822;51.000;5.874;2023-09-19T08:45:15;15.52;;;14.63;;
11531;SDS011;5822;51.000;5.874;2023-09-19T08:47:45;15.40;;;14.60;;
11531;SDS011;5822;51.000;5.874;2023-09-19T08:50:19;16.00;;;15.10;;
11531;SDS011;5822;51.000;5.874;2023-09-19T08:52:51;16.15;;;15.15;;
11531;SDS011;5822;51.000;5.874;2023-09-19T08:55:19;16.17;;;15.27;;
11531;SDS011;5822;51.000;5.874;2023-09-19T08:57:52;15.80;;;14.90;;
11531;SDS011;5822;51.000;5.874;2023-09-19T09:00:26;15.40;;;14.60;;
11531;SDS011;5822;51.000;5.874;2023-09-19T09:02:52;15.82;;;14.93;;
11531;SDS011;5822;51.000;5.874;2023-09-19T09:05:20;16.02;;;15.13;;
11531;SDS011;5822;51.000;5.874;2023-09-19T09:07:47;15.32;;;14.48;;
11531;SDS011;5822;51.000;5.874;2023-09-19T09:10:16;15.48;;;14.68;;
11531;SDS011;5822;51.000;5.874;2023-09-19T09:12:42;15.40;;;14.60;;
11531;SDS011;5822;51.000;5.874;2023-09-19T09:15:09;16.00;;;15.10;;
11531;SDS011;5822;51.000;5.874;2023-09-19T09:17:37;15.80;;;14.90;;
11531;SDS011;5822;51.000;5.874;2023-09-19T09:20:02;15.50;;;14.70;;
11531;SDS011;5822;51.000;5.874;2023-09-19T09:22:35;15.10;;;14.30;;
11531;SDS011;5822;51.000;5.874;2023-09-19T09:25:01;14.90;;;14.10;;
11531;SDS011;5822;51.000;5.874;2023-09-19T09:27:29;14.55;;;13.80;;
11531;SDS011;5822;51.000;5.874;2023-09-19T09:29:55;14.60;;;13.80;;
11531;SDS011;5822;51.000;5.874;2023-09-19T09:32:22;14.70;;;13.90;;
11531;SDS011;5822;51.000;5.874;2023-09-19T09:37:20;15.10;;;14.30;;
11531;SDS011;5822;51.000;5.874;2023-09-19T09:39:50;15.10;;;14.30;;
11531;SDS011;5822;51.000;5.874;2023-09-19T09:42:32;15.50;;;14.70;;
11531;SDS011;5822;51.000;5.874;2023-09-19T09:45:19;15.90;;;15.00;;
11531;SDS011;5822;51.000;5.874;2023-09-19T09:48:14;15.68;;;14.88;;
11531;SDS011;5822;51.000;5.874;2023-09-19T09:50:46;15.80;;;14.90;;
11531;SDS011;5822;51.000;5.874;2023-09-19T09:53:22;15.65;;;14.73;;
11531;SDS011;5822;51.000;5.874;2023-09-19T09:58:37;16.08;;;15.18;;
11531;SDS011;5822;51.000;5.874;2023-09-19T10:01:24;15.35;;;14.55;;
11531;SDS011;5822;51.000;5.874;2023-09-19T10:03:56;15.40;;;14.60;;
11531;SDS011;5822;51.000;5.874;2023-09-19T10:06:23;15.40;;;14.60;;
11531;SDS011;5822;51.000;5.874;2023-09-19T10:09:02;16.00;;;15.10;;
11531;SDS011;5822;51.000;5.874;2023-09-19T10:11:47;15.82;;;14.93;;
11531;SDS011;5822;51.000;5.874;2023-09-19T10:14:21;15.73;;;14.93;;
11531;SDS011;5822;51.000;5.874;2023-09-19T10:16:50;16.20;;;15.20;;
11531;SDS011;5822;51.000;5.874;2023-09-19T10:19:42;15.82;;;15.00;;
11531;SDS011;5822;51.000;5.874;2023-09-19T10:22:16;15.93;;;15.02;;
11531;SDS011;5822;51.000;5.874;2023-09-19T10:24:47;16.03;;;15.13;;
11531;SDS011;5822;51.000;5.874;2023-09-19T10:27:17;16.27;;;15.30;;
11531;SDS011;5822;51.000;5.874;2023-09-19T10:29:44;16.42;;;15.43;;
11531;SDS011;5822;51.000;5.874;2023-09-19T10:32:15;16.40;;;15.50;;
11531;SDS011;5822;51.000;5.874;2023-09-19T10:34:44;16.40;;;15.50;;
11531;SDS011;5822;51.000;5.874;2023-09-19T10:37:12;16.20;;;15.30;;
11531;SDS011;5822;51.000;5.874;2023-09-19T10:39:40;15.93;;;15.13;;
11531;SDS011;5822;51.000;5.874;2023-09-19T10:42:10;16.35;;;15.45;;
11531;SDS011;5822;51.000;5.874;2023-09-19T10:44:42;16.67;;;15.68;;
11531;SDS011;5822;51.000;5.874;2023-09-19T10:47:10;16.55;;;15.65;;
11531;SDS011;5822;51.000;5.874;2023-09-19T10:49:43;16.80;;;15.90;;
11531;SDS011;5822;51.000;5.874;2023-09-19T10:52:11;16.45;;;15.55;;
11531;SDS011;5822;51.000;5.874;2023-09-19T10:54:44;16.80;;;15.90;;
11531;SDS011;5822;51.000;5.874;2023-09-19T10:57:19;17.30;;;16.20;;
11531;SDS011;5822;51.000;5.874;2023-09-19T11:00:05;17.20;;;16.20;;
11531;SDS011;5822;51.000;5.874;2023-09-19T11:06:01;16.83;;;15.90;;
11531;SDS011;5822;51.000;5.874;2023-09-19T11:11:48;17.42;;;16.42;;
11531;SDS011;5822;51.000;5.874;2023-09-19T11:30:39;16.33;;;15.43;;
11531;SDS011;5822;51.000;5.874;2023-09-19T11:33:16;16.63;;;15.70;;
11531;SDS011;5822;51.000;5.874;2023-09-19T11:36:04;16.93;;;16.03;;
11531;SDS011;5822;51.000;5.874;2023-09-19T11:43:47;16.40;;;15.50;;
11531;SDS011;5822;51.000;5.874;2023-09-19T11:46:16;16.38;;;15.50;;
11531;SDS011;5822;51.000;5.874;2023-09-19T11:48:47;16.80;;;15.90;;
11531;SDS011;5822;51.000;5.874;2023-09-19T11:51:23;16.30;;;15.30;;
11531;SDS011;5822;51.000;5.874;2023-09-19T11:53:56;16.90;;;16.00;;
11531;SDS011;5822;51.000;5.874;2023-09-19T11:56:25;17.25;;;16.33;;
11531;SDS011;5822;51.000;5.874;2023-09-19T11:58:56;17.10;;;16.20;;
11531;SDS011;5822;51.000;5.874;2023-09-19T12:01:29;16.70;;;15.70;;
11531;SDS011;5822;51.000;5.874;2023-09-19T12:03:57;16.80;;;15.80;;
11531;SDS011;5822;51.000;5.874;2023-09-19T12:06:25;16.42;;;15.52;;
11531;SDS011;5822;51.000;5.874;2023-09-19T12:08:51;16.33;;;15.43;;
11531;SDS011;5822;51.000;5.874;2023-09-19T12:11:19;16.73;;;15.77;;
11531;SDS011;5822;51.000;5.874;2023-09-19T12:13:46;16.48;;;15.57;;
11531;SDS011;5822;51.000;5.874;2023-09-19T12:18:44;16.73;;;15.82;;
11531;SDS011;5822;51.000;5.874;2023-09-19T12:21:27;16.60;;;15.70;;
11531;SDS011;5822;51.000;5.874;2023-09-19T12:26:52;16.40;;;15.50;;
11531;SDS011;5822;51.000;5.874;2023-09-19T12:29:21;16.45;;;15.55;;
11531;SDS011;5822;51.000;5.874;2023-09-19T12:31:54;16.15;;;15.35;;
11531;SDS011;5822;51.000;5.874;2023-09-19T12:34:23;15.75;;;14.95;;
11531;SDS011;5822;51.000;5.874;2023-09-19T12:39:44;16.77;;;15.88;;
11531;SDS011;5822;51.000;5.874;2023-09-19T12:42:14;16.90;;;16.00;;
11531;SDS011;5822;51.000;5.874;2023-09-19T12:44:45;17.30;;;16.35;;
11531;SDS011;5822;51.000;5.874;2023-09-19T12:47:22;16.80;;;15.80;;
11531;SDS011;5822;51.000;5.874;2023-09-19T12:50:22;16.80;;;15.90;;
11531;SDS011;5822;51.000;5.874;2023-09-19T12:52:51;17.40;;;16.50;;
11531;SDS011;5822;51.000;5.874;2023-09-19T13:00:37;16.93;;;16.03;;
11531;SDS011;5822;51.000;5.874;2023-09-19T13:05:51;16.80;;;16.00;;
11531;SDS011;5822;51.000;5.874;2023-09-19T13:08:24;16.88;;;15.98;;
11531;SDS011;5822;51.000;5.874;2023-09-19T13:13:34;16.80;;;16.00;;
11531;SDS011;5822;51.000;5.874;2023-09-19T13:16:02;16.15;;;15.35;;
11531;SDS011;5822;51.000;5.874;2023-09-19T13:18:41;16.13;;;15.32;;
11531;SDS011;5822;51.000;5.874;2023-09-19T13:21:12;15.90;;;15.00;;
11531;SDS011;5822;51.000;5.874;2023-09-19T13:23:50;16.35;;;15.55;;
11531;SDS011;5822;51.000;5.874;2023-09-19T13:26:17;17.00;;;16.10;;
11531;SDS011;5822;51.000;5.874;2023-09-19T13:28:44;16.70;;;15.80;;
11531;SDS011;5822;51.000;5.874;2023-09-19T13:31:09;16.07;;;15.23;;
11531;SDS011;5822;51.000;5.874;2023-09-19T13:33:45;16.35;;;15.50;;
11531;SDS011;5822;51.000;5.874;2023-09-19T13:36:12;15.73;;;14.93;;
11531;SDS011;5822;51.000;5.874;2023-09-19T13:38:41;15.98;;;15.18;;
11531;SDS011;5822;51.000;5.874;2023-09-19T13:41:11;16.10;;;15.30;;
11531;SDS011;5822;51.000;5.874;2023-09-19T13:43:38;16.10;;;15.30;;
11531;SDS011;5822;51.000;5.874;2023-09-19T13:46:04;16.50;;;15.60;;
11531;SDS011;5822;51.000;5.874;2023-09-19T13:48:30;16.55;;;15.75;;
11531;SDS011;5822;51.000;5.874;2023-09-19T13:50:56;16.35;;;15.45;;
11531;SDS011;5822;51.000;5.874;2023-09-19T13:53:22;16.30;;;15.50;;
11531;SDS011;5822;51.000;5.874;2023-09-19T13:55:48;16.08;;;15.27;;
11531;SDS011;5822;51.000;5.874;2023-09-19T13:58:14;16.13;;;15.32;;
11531;SDS011;5822;51.000;5.874;2023-09-19T14:00:40;16.58;;;15.68;;
11531;SDS011;5822;51.000;5.874;2023-09-19T14:03:05;16.20;;;15.40;;
11531;SDS011;5822;51.000;5.874;2023-09-19T14:05:31;16.10;;;15.30;;
11531;SDS011;5822;51.000;5.874;2023-09-19T14:07:57;16.00;;;15.20;;
11531;SDS011;5822;51.000;5.874;2023-09-19T14:10:28;15.82;;;15.02;;
11531;SDS011;5822;51.000;5.874;2023-09-19T14:12:55;15.60;;;14.80;;
11531;SDS011;5822;51.000;5.874;2023-09-19T14:15:23;15.60;;;14.80;;
11531;SDS011;5822;51.000;5.874;2023-09-19T14:17:58;15.27;;;14.48;;
11531;SDS011;5822;51.000;5.874;2023-09-19T14:20:25;15.50;;;14.70;;
11531;SDS011;5822;51.000;5.874;2023-09-19T14:22:52;16.15;;;15.32;;
11531;SDS011;5822;51.000;5.874;2023-09-19T14:25:18;16.30;;;15.45;;
11531;SDS011;5822;51.000;5.874;2023-09-19T14:27:44;16.35;;;15.52;;
11531;SDS011;5822;51.000;5.874;2023-09-19T14:30:12;16.17;;;15.37;;
11531;SDS011;5822;51.000;5.874;2023-09-19T14:32:38;16.53;;;15.63;;
11531;SDS011;5822;51.000;5.874;2023-09-19T14:35:04;16.60;;;15.70;;
11531;SDS011;5822;51.000;5.874;2023-09-19T14:37:31;16.20;;;15.40;;
11531;SDS011;5822;51.000;5.874;2023-09-19T14:39:57;16.23;;;15.43;;
11531;SDS011;5822;51.000;5.874;2023-09-19T14:42:22;16.13;;;15.32;;
11531;SDS011;5822;51.000;5.874;2023-09-19T14:44:48;16.00;;;15.10;;
11531;SDS011;5822;51.000;5.874;2023-09-19T14:47:15;15.80;;;15.00;;
11531;SDS011;5822;51.000;5.874;2023-09-19T14:49:42;16.35;;;15.45;;
11531;SDS011;5822;51.000;5.874;2023-09-19T14:52:08;15.43;;;14.63;;
11531;SDS011;5822;51.000;5.874;2023-09-19T14:54:35;15.73;;;14.93;;
11531;SDS011;5822;51.000;5.874;2023-09-19T14:57:03;15.57;;;14.77;;
11531;SDS011;5822;51.000;5.874;2023-09-19T14:59:32;15.40;;;14.60;;
11531;SDS011;5822;51.000;5.874;2023-09-19T15:01:59;15.40;;;14.60;;
11531;SDS011;5822;51.000;5.874;2023-09-19T15:04:25;15.30;;;14.50;;
11531;SDS011;5822;51.000;5.874;2023-09-19T15:06:52;15.93;;;15.02;;
11531;SDS011;5822;51.000;5.874;2023-09-19T15:09:22;15.50;;;14.70;;
11531;SDS011;5822;51.000;5.874;2023-09-19T15:11:51;15.52;;;14.73;;
11531;SDS011;5822;51.000;5.874;2023-09-19T15:14:20;16.00;;;15.20;;
11531;SDS011;5822;51.000;5.874;2023-09-19T15:16:47;15.70;;;14.90;;
11531;SDS011;5822;51.000;5.874;2023-09-19T15:19:13;15.57;;;14.77;;
11531;SDS011;5822;51.000;5.874;2023-09-19T15:21:40;15.90;;;15.00;;
11531;SDS011;5822;51.000;5.874;2023-09-19T15:24:06;15.68;;;14.88;;
11531;SDS011;5822;51.000;5.874;2023-09-19T15:26:35;16.02;;;15.23;;
11531;SDS011;5822;51.000;5.874;2023-09-19T15:29:05;15.13;;;14.32;;
11531;SDS011;5822;51.000;5.874;2023-09-19T15:31:32;15.43;;;14.60;;
11531;SDS011;5822;51.000;5.874;2023-09-19T15:34:04;16.13;;;15.23;;
11531;SDS011;5822;51.000;5.874;2023-09-19T15:36:30;16.00;;;15.20;;
11531;SDS011;5822;51.000;5.874;2023-09-19T15:39:00;16.30;;;15.40;;
11531;SDS011;5822;51.000;5.874;2023-09-19T15:41:29;15.90;;;15.10;;
11531;SDS011;5822;51.000;5.874;2023-09-19T15:43:57;15.90;;;15.10;;